createdAt,value
2017-08-14T00:01:50.963Z,10.73
2017-08-14T00:04:17.943Z,9.50
2017-08-14T00:06:44.887Z,8.00
2017-08-14T00:09:12.081Z,7.30
2017-08-14T00:11:45.027Z,9.63
2017-08-14T00:14:14.047Z,7.90
2017-08-14T00:16:41.031Z,9.73
2017-08-14T00:19:07.980Z,9.10
2017-08-14T00:21:35.120Z,9.47
2017-08-14T00:24:02.121Z,8.63
2017-08-14T00:26:29.020Z,8.37
2017-08-14T00:28:55.873Z,9.70
2017-08-14T00:31:24.695Z,8.70
2017-08-14T00:33:51.685Z,8.40
2017-08-14T00:36:19.300Z,10.07
2017-08-14T00:38:46.380Z,9.83
2017-08-14T00:41:13.543Z,7.93
2017-08-14T00:43:41.256Z,9.07
2017-08-14T00:46:09.168Z,9.33
2017-08-14T00:48:37.020Z,9.40
2017-08-14T00:51:04.065Z,8.90
2017-08-14T00:53:33.345Z,9.33
2017-08-14T00:56:00.597Z,7.80
2017-08-14T00:58:28.198Z,7.90
2017-08-14T01:00:55.092Z,8.80
2017-08-14T01:03:21.973Z,9.07
2017-08-14T01:05:48.952Z,9.60
2017-08-14T01:08:16.563Z,7.43
2017-08-14T01:10:43.431Z,9.17
2017-08-14T01:15:43.819Z,9.70
2017-08-14T01:18:11.611Z,9.57
2017-08-14T01:20:38.637Z,9.00
2017-08-14T01:23:05.580Z,8.33
2017-08-14T01:25:33.204Z,8.43
2017-08-14T01:28:00.186Z,8.80
2017-08-14T01:30:27.442Z,9.00
2017-08-14T01:32:55.234Z,8.93
2017-08-14T01:35:22.208Z,8.97
2017-08-14T01:37:49.156Z,9.37
2017-08-14T01:40:16.208Z,8.33
2017-08-14T01:42:43.170Z,7.83
2017-08-14T01:45:10.039Z,9.17
2017-08-14T01:47:37.748Z,10.60
2017-08-14T01:50:13.420Z,8.60
2017-08-14T01:52:40.723Z,8.57
2017-08-14T01:55:07.873Z,8.03
2017-08-14T01:57:34.758Z,8.30
2017-08-14T02:00:01.864Z,9.30
2017-08-14T02:02:28.960Z,8.60
2017-08-14T02:04:57.300Z,8.40
2017-08-14T02:07:24.208Z,9.43
2017-08-14T02:09:51.124Z,10.00
2017-08-14T02:12:19.432Z,7.63
2017-08-14T02:14:46.344Z,9.17
2017-08-14T02:17:13.443Z,8.83
2017-08-14T02:19:41.188Z,7.90
2017-08-14T02:22:09.700Z,8.23
2017-08-14T02:24:36.588Z,8.80
2017-08-14T02:27:03.577Z,7.83
2017-08-14T02:29:31.316Z,9.10
2017-08-14T02:31:58.162Z,9.80
2017-08-14T02:34:25.147Z,9.20
2017-08-14T02:36:53.704Z,9.33
2017-08-14T02:39:21.887Z,9.10
2017-08-14T02:41:49.580Z,8.60
2017-08-14T02:44:16.822Z,7.57
2017-08-14T02:46:44.919Z,8.90
2017-08-14T02:49:11.852Z,9.30
2017-08-14T02:51:39.009Z,8.07
2017-08-14T02:54:05.944Z,8.90
2017-08-14T02:56:33.638Z,8.23
2017-08-14T02:59:00.534Z,8.57
2017-08-14T03:01:27.390Z,9.73
2017-08-14T03:03:55.103Z,8.90
2017-08-14T03:06:22.064Z,9.37
2017-08-14T03:08:49.086Z,9.50
2017-08-14T03:11:16.408Z,8.43
2017-08-14T03:13:43.586Z,10.93
2017-08-14T03:16:10.734Z,11.00
2017-08-14T03:18:37.676Z,9.80
2017-08-14T03:21:04.590Z,10.20
2017-08-14T03:23:31.709Z,9.00
2017-08-14T03:25:58.670Z,10.07
2017-08-14T03:28:26.177Z,9.73
2017-08-14T03:30:53.231Z,10.90
2017-08-14T03:33:20.099Z,10.30
2017-08-14T03:35:47.279Z,10.23
2017-08-14T03:38:14.184Z,10.80
2017-08-14T03:40:41.124Z,10.20
2017-08-14T03:43:08.007Z,11.37
2017-08-14T03:45:35.050Z,8.97
2017-08-14T03:48:02.024Z,10.03
2017-08-14T03:50:30.111Z,9.90
2017-08-14T03:52:58.619Z,10.50
2017-08-14T03:55:27.250Z,9.07
2017-08-14T03:57:54.114Z,11.17
2017-08-14T04:00:21.004Z,9.23
2017-08-14T04:02:48.535Z,10.40
2017-08-14T04:05:16.457Z,11.10
2017-08-14T04:07:43.371Z,10.57
2017-08-14T04:10:10.298Z,10.83
2017-08-14T04:12:37.371Z,10.33
2017-08-14T04:15:05.203Z,10.87
2017-08-14T04:17:36.512Z,11.37
2017-08-14T04:20:03.664Z,10.70
2017-08-14T04:22:33.626Z,10.40
2017-08-14T04:25:02.429Z,11.73
2017-08-14T04:27:40.825Z,10.03
2017-08-14T04:30:07.819Z,10.63
2017-08-14T04:32:35.718Z,11.23
2017-08-14T04:35:02.699Z,11.03
2017-08-14T04:37:31.238Z,11.73
2017-08-14T04:40:03.988Z,10.40
2017-08-14T04:42:37.563Z,10.83
2017-08-14T04:45:04.447Z,11.27
2017-08-14T04:47:31.351Z,10.20
2017-08-14T04:49:58.341Z,12.03
2017-08-14T04:52:25.239Z,10.63
2017-08-14T04:54:52.122Z,10.10
2017-08-14T04:57:19.191Z,10.57
2017-08-14T04:59:50.476Z,11.10
2017-08-14T05:02:17.690Z,10.40
2017-08-14T05:04:44.629Z,10.40
2017-08-14T05:07:16.070Z,10.23
2017-08-14T05:09:44.746Z,11.60
2017-08-14T05:12:11.773Z,11.20
2017-08-14T05:14:40.913Z,11.57
2017-08-14T05:17:08.057Z,11.70
2017-08-14T05:19:34.944Z,11.97
2017-08-14T05:22:02.564Z,12.07
2017-08-14T05:24:29.526Z,12.20
2017-08-14T05:26:56.435Z,12.40
2017-08-14T05:29:23.426Z,11.63
2017-08-14T05:31:50.369Z,11.87
2017-08-14T05:34:17.256Z,12.00
2017-08-14T05:36:44.219Z,11.53
2017-08-14T05:39:11.096Z,10.87
2017-08-14T05:41:37.990Z,12.30
2017-08-14T05:44:04.930Z,11.83
2017-08-14T05:46:32.537Z,11.17
2017-08-14T05:48:59.445Z,10.90
2017-08-14T05:51:26.379Z,11.10
2017-08-14T05:53:53.333Z,10.57
2017-08-14T05:56:21.009Z,10.67
2017-08-14T05:58:47.959Z,10.20
2017-08-14T06:01:14.876Z,10.53
2017-08-14T06:03:42.496Z,9.40
2017-08-14T06:06:09.424Z,9.50
2017-08-14T06:08:36.375Z,10.70
2017-08-14T06:11:03.238Z,9.30
2017-08-14T06:13:30.191Z,10.27
2017-08-14T06:15:57.132Z,8.53
2017-08-14T06:18:24.165Z,10.17
2017-08-14T06:20:51.065Z,9.67
2017-08-14T06:23:18.692Z,9.83
2017-08-14T06:25:45.628Z,8.73
2017-08-14T06:28:12.500Z,9.90
2017-08-14T06:30:39.376Z,8.90
2017-08-14T06:33:06.320Z,8.80
2017-08-14T06:35:34.021Z,8.83
2017-08-14T06:38:01.931Z,8.97
2017-08-14T06:40:28.805Z,8.00
2017-08-14T06:42:55.683Z,8.70
2017-08-14T06:45:22.619Z,7.63
2017-08-14T06:47:49.480Z,6.90
2017-08-14T06:50:16.395Z,7.77
2017-08-14T06:52:43.404Z,8.63
2017-08-14T06:55:10.279Z,7.20
2017-08-14T06:57:37.281Z,8.20
2017-08-14T07:00:12.295Z,7.80
2017-08-14T07:02:40.928Z,8.17
2017-08-14T07:05:14.905Z,7.63
2017-08-14T07:07:54.295Z,7.50
2017-08-14T07:10:21.236Z,8.27
2017-08-14T07:12:48.249Z,9.00
2017-08-14T07:15:15.123Z,8.30
2017-08-14T07:17:42.819Z,9.10
2017-08-14T07:20:09.752Z,7.23
2017-08-14T07:22:36.675Z,8.40
2017-08-14T07:25:04.297Z,8.17
2017-08-14T07:27:31.211Z,7.20
2017-08-14T07:29:58.158Z,7.50
2017-08-14T07:32:25.043Z,7.40
2017-08-14T07:34:52.160Z,9.13
2017-08-14T07:37:19.099Z,9.97
2017-08-14T07:39:46.456Z,7.70
2017-08-14T07:42:13.360Z,7.73
2017-08-14T07:44:40.237Z,7.20
2017-08-14T07:47:07.143Z,8.10
2017-08-14T07:49:34.990Z,8.80
2017-08-14T07:52:01.836Z,8.17
2017-08-14T07:54:28.764Z,7.80
2017-08-14T07:56:55.675Z,9.00
2017-08-14T07:59:22.604Z,7.77
2017-08-14T08:19:11.294Z,7.40
2017-08-14T08:21:39.001Z,7.33
2017-08-14T08:24:05.844Z,6.90
2017-08-14T08:26:32.742Z,6.17
2017-08-14T08:29:00.432Z,8.03
2017-08-14T08:31:27.309Z,6.80
2017-08-14T08:33:54.160Z,7.13
2017-08-14T08:36:21.103Z,6.50
2017-08-14T08:38:47.973Z,6.60
2017-08-14T08:41:15.718Z,7.37
2017-08-14T08:43:42.564Z,8.17
2017-08-14T08:46:09.494Z,6.90
2017-08-14T08:48:36.465Z,6.00
2017-08-14T08:51:03.328Z,6.50
2017-08-14T08:53:31.018Z,5.50
2017-08-14T08:55:57.892Z,9.90
2017-08-14T08:58:24.784Z,6.73
2017-08-14T09:00:52.437Z,8.33
2017-08-14T09:03:20.119Z,6.93
2017-08-14T09:05:47.720Z,5.53
2017-08-14T09:08:14.678Z,5.80
2017-08-14T09:10:41.541Z,4.40
2017-08-14T09:13:08.438Z,6.60
2017-08-14T09:15:35.403Z,5.20
2017-08-14T09:18:02.327Z,4.93
2017-08-14T09:20:29.295Z,4.27
2017-08-14T09:22:56.172Z,4.10
2017-08-14T09:25:23.054Z,4.30
2017-08-14T09:27:50.045Z,4.63
2017-08-14T09:30:16.929Z,3.90
2017-08-14T09:32:44.558Z,4.20
2017-08-14T09:35:12.268Z,4.50
2017-08-14T09:37:39.280Z,4.43
2017-08-14T09:40:06.156Z,3.77
2017-08-14T09:42:33.110Z,4.30
2017-08-14T09:45:00.047Z,3.70
2017-08-14T09:47:26.947Z,4.10
2017-08-14T09:49:53.806Z,4.10
2017-08-14T09:52:20.780Z,4.60
2017-08-14T09:54:48.390Z,4.00
2017-08-14T09:57:15.242Z,3.97
2017-08-14T09:59:42.212Z,3.83
2017-08-14T10:02:09.073Z,3.60
2017-08-14T10:04:36.677Z,3.60
2017-08-14T10:07:04.004Z,4.03
2017-08-14T10:09:31.140Z,4.40
2017-08-14T10:11:58.042Z,3.90
2017-08-14T10:14:25.017Z,4.50
2017-08-14T10:16:51.896Z,4.90
2017-08-14T10:19:18.751Z,4.37
2017-08-14T10:21:45.672Z,4.30
2017-08-14T10:24:12.549Z,4.60
2017-08-14T10:26:39.492Z,4.60
2017-08-14T10:29:06.455Z,4.33
2017-08-14T10:31:33.341Z,4.67
2017-08-14T10:34:01.002Z,5.00
2017-08-14T10:36:27.996Z,3.87
2017-08-14T10:38:54.942Z,4.33
2017-08-14T10:41:21.930Z,4.50
2017-08-14T10:43:48.908Z,5.03
2017-08-14T10:46:15.865Z,4.60
2017-08-14T10:48:42.952Z,4.37
2017-08-14T10:51:09.905Z,4.87
2017-08-14T10:53:36.836Z,4.97
2017-08-14T10:56:03.740Z,5.17
2017-08-14T10:58:30.709Z,4.30
2017-08-14T11:00:57.664Z,4.93
2017-08-14T11:03:26.812Z,4.63
2017-08-14T11:05:54.746Z,4.80
2017-08-14T11:08:21.637Z,4.90
2017-08-14T11:28:10.454Z,4.40
2017-08-14T11:30:37.317Z,4.60
2017-08-14T11:33:04.198Z,4.77
2017-08-14T11:35:31.900Z,4.87
2017-08-14T11:37:58.807Z,5.53
2017-08-14T11:40:26.506Z,4.10
2017-08-14T11:42:53.362Z,5.07
2017-08-14T11:45:20.228Z,4.80
2017-08-14T11:47:47.163Z,4.47
2017-08-14T11:50:14.039Z,4.57
2017-08-14T11:52:41.305Z,4.67
2017-08-14T11:55:08.947Z,4.90
2017-08-14T11:57:35.803Z,4.77
2017-08-14T12:00:02.803Z,4.30
2017-08-14T12:02:29.744Z,5.20
2017-08-14T12:04:56.688Z,4.83
2017-08-14T12:07:23.623Z,4.50
2017-08-14T12:09:50.495Z,5.10
2017-08-14T12:12:17.443Z,4.80
2017-08-14T12:14:44.340Z,3.93
2017-08-14T12:17:12.042Z,4.10
2017-08-14T12:19:39.029Z,4.30
2017-08-14T12:22:05.937Z,4.63
2017-08-14T12:24:32.900Z,4.00
2017-08-14T12:26:59.860Z,4.77
2017-08-14T12:29:26.761Z,4.70
2017-08-14T12:31:53.791Z,4.20
2017-08-14T12:34:20.757Z,4.70
2017-08-14T12:36:47.796Z,4.87
2017-08-14T12:39:14.670Z,3.83
2017-08-14T12:41:41.565Z,4.50
2017-08-14T12:44:09.256Z,4.23
2017-08-14T12:46:36.573Z,3.90
2017-08-14T12:49:03.705Z,4.10
2017-08-14T12:51:30.627Z,4.40
2017-08-14T12:53:57.487Z,4.10
2017-08-14T12:56:25.368Z,3.87
2017-08-14T12:58:52.364Z,3.93
2017-08-14T13:01:19.241Z,3.80
2017-08-14T13:03:46.109Z,3.90
2017-08-14T13:06:13.273Z,4.33
2017-08-14T13:08:40.288Z,3.80
2017-08-14T13:11:07.865Z,4.03
2017-08-14T13:13:37.956Z,3.23
2017-08-14T13:16:04.921Z,3.70
2017-08-14T13:18:31.775Z,4.13
2017-08-14T13:20:58.637Z,3.43
2017-08-14T13:23:25.583Z,3.30
2017-08-14T13:25:52.469Z,3.10
2017-08-14T13:28:19.423Z,3.67
2017-08-14T13:30:46.413Z,3.50
2017-08-14T13:33:13.344Z,4.07
2017-08-14T13:35:40.326Z,3.33
2017-08-14T13:38:11.500Z,3.20
2017-08-14T13:40:40.867Z,3.60
2017-08-14T13:43:07.848Z,3.33
2017-08-14T13:45:34.828Z,3.70
2017-08-14T13:48:01.778Z,3.93
2017-08-14T13:50:28.682Z,3.47
2017-08-14T13:52:58.577Z,3.20
2017-08-14T13:55:26.260Z,3.30
2017-08-14T13:57:53.164Z,3.40
2017-08-14T14:00:20.044Z,3.17
2017-08-14T14:02:47.337Z,3.40
2017-08-14T14:05:14.233Z,3.20
2017-08-14T14:07:41.839Z,3.80
2017-08-14T14:10:08.780Z,3.27
2017-08-14T14:12:35.636Z,4.00
2017-08-14T14:15:02.590Z,3.40
2017-08-14T14:17:29.452Z,3.80
2017-08-14T14:19:56.434Z,3.70
2017-08-14T14:22:23.349Z,2.90
2017-08-14T14:24:50.268Z,4.10
2017-08-14T14:27:17.217Z,3.40
2017-08-14T14:29:44.225Z,3.57
2017-08-14T14:32:11.137Z,3.70
2017-08-14T14:34:38.090Z,3.60
2017-08-14T14:37:04.951Z,3.77
2017-08-14T14:39:31.853Z,3.40
2017-08-14T14:41:58.827Z,4.23
2017-08-14T14:44:26.598Z,3.60
2017-08-14T14:46:53.517Z,3.97
2017-08-14T14:49:20.465Z,3.93
2017-08-14T14:51:47.401Z,3.80
2017-08-14T14:54:14.400Z,3.80
2017-08-14T14:56:41.287Z,3.47
2017-08-14T14:59:08.177Z,3.67
2017-08-14T15:01:35.883Z,3.60
2017-08-14T15:04:02.768Z,3.70
2017-08-14T15:06:29.741Z,3.43
2017-08-14T15:08:56.722Z,3.10
2017-08-14T15:11:23.712Z,3.37
2017-08-14T15:13:50.623Z,3.10
2017-08-14T15:16:18.537Z,3.97
2017-08-14T15:18:46.245Z,2.97
2017-08-14T15:21:13.236Z,3.47
2017-08-14T15:23:40.188Z,2.80
2017-08-14T15:26:07.921Z,3.70
2017-08-14T15:28:35.889Z,3.10
2017-08-14T15:31:02.791Z,4.20
2017-08-14T15:33:29.710Z,2.60
2017-08-14T15:35:56.752Z,3.60
2017-08-14T15:38:23.603Z,2.87
2017-08-14T15:40:50.472Z,3.30
2017-08-14T15:43:17.424Z,2.90
2017-08-14T15:45:44.384Z,3.20
2017-08-14T15:48:11.356Z,4.40
2017-08-14T15:50:38.235Z,2.80
2017-08-14T15:53:05.898Z,3.30
2017-08-14T15:55:32.878Z,2.70
2017-08-14T15:57:59.736Z,3.00
2017-08-14T16:00:26.713Z,2.70
2017-08-14T16:02:53.608Z,3.03
2017-08-14T16:05:20.539Z,2.70
2017-08-14T16:07:48.225Z,2.73
2017-08-14T16:10:15.139Z,3.10
2017-08-14T16:12:42.808Z,2.87
2017-08-14T16:15:09.685Z,3.03
2017-08-14T16:17:36.709Z,2.80
2017-08-14T16:20:04.874Z,3.37
2017-08-14T16:22:31.897Z,3.27
2017-08-14T16:24:58.986Z,3.83
2017-08-14T16:27:25.951Z,3.53
2017-08-14T16:29:52.863Z,3.40
2017-08-14T16:32:20.996Z,3.47
2017-08-14T16:34:52.246Z,3.20
2017-08-14T16:37:23.934Z,2.47
2017-08-14T16:39:55.841Z,3.97
2017-08-14T16:42:22.800Z,3.00
2017-08-14T16:44:52.276Z,3.10
2017-08-14T16:47:19.156Z,3.83
2017-08-14T16:49:46.090Z,3.10
2017-08-14T16:52:21.180Z,3.40
2017-08-14T16:54:48.208Z,2.73
2017-08-14T16:57:15.168Z,3.17
2017-08-14T16:59:44.314Z,3.70
2017-08-14T17:02:11.188Z,3.20
2017-08-14T17:04:38.136Z,3.20
2017-08-14T17:07:05.126Z,2.53
2017-08-14T17:09:32.032Z,3.00
2017-08-14T17:11:58.944Z,2.97
2017-08-14T17:14:25.986Z,2.93
2017-08-14T17:16:53.608Z,3.40
2017-08-14T17:19:20.609Z,3.70
2017-08-14T17:39:12.571Z,3.20
2017-08-14T17:41:46.656Z,3.93
2017-08-14T17:44:30.181Z,3.07
2017-08-14T17:46:58.112Z,3.10
2017-08-14T17:49:25.057Z,3.07
2017-08-14T17:51:51.944Z,2.70
2017-08-14T17:54:18.860Z,2.60
2017-08-14T17:56:45.852Z,3.00
2017-08-14T17:59:13.552Z,2.77
2017-08-14T18:01:40.410Z,2.90
2017-08-14T18:04:07.362Z,3.10
2017-08-14T18:06:34.539Z,3.47
2017-08-14T18:09:01.400Z,3.63
2017-08-14T18:11:28.341Z,3.33
2017-08-14T18:13:56.021Z,2.50
2017-08-14T18:16:22.900Z,3.20
2017-08-14T18:18:49.842Z,3.30
2017-08-14T18:21:16.759Z,2.77
2017-08-14T18:23:43.624Z,3.20
2017-08-14T18:26:10.616Z,3.40
2017-08-14T18:28:37.506Z,3.40
2017-08-14T18:31:04.456Z,3.40
2017-08-14T18:33:31.367Z,3.63
2017-08-14T18:35:58.239Z,3.80
2017-08-14T18:38:25.270Z,3.43
2017-08-14T18:40:52.879Z,3.60
2017-08-14T18:43:19.777Z,3.17
2017-08-14T18:45:47.444Z,2.93
2017-08-14T18:48:15.053Z,4.27
2017-08-14T18:50:42.004Z,4.13
2017-08-14T18:53:08.892Z,4.80
2017-08-14T18:55:35.829Z,5.20
2017-08-14T18:58:02.797Z,5.53
2017-08-14T19:00:30.505Z,5.70
2017-08-14T19:02:57.374Z,5.90
2017-08-14T19:05:24.281Z,6.10
2017-08-14T19:07:52.255Z,5.10
2017-08-14T19:10:18.292Z,5.53
2017-08-14T19:12:45.168Z,5.77
2017-08-14T19:15:12.056Z,6.60
2017-08-14T19:17:39.020Z,6.47
2017-08-14T19:20:05.911Z,6.30
2017-08-14T19:22:33.554Z,6.43
2017-08-14T19:25:00.493Z,5.93
2017-08-14T19:27:31.529Z,5.10
2017-08-14T19:30:02.945Z,6.10
2017-08-14T19:32:30.145Z,5.90
2017-08-14T19:34:57.021Z,5.93
2017-08-14T19:37:24.660Z,4.73
2017-08-14T19:39:51.625Z,5.40
2017-08-14T19:42:19.274Z,5.10
2017-08-14T19:44:46.950Z,4.13
2017-08-14T19:47:14.640Z,4.90
2017-08-14T19:49:41.509Z,4.40
2017-08-14T19:52:08.411Z,4.10
2017-08-14T19:54:36.152Z,4.17
2017-08-14T19:57:03.096Z,4.50
2017-08-14T19:59:29.949Z,4.20
2017-08-14T20:01:56.898Z,4.10
2017-08-14T20:04:24.517Z,4.40
2017-08-14T20:06:51.465Z,3.77
2017-08-14T20:09:18.336Z,4.23
2017-08-14T20:11:45.261Z,4.37
2017-08-14T20:14:12.134Z,4.77
2017-08-14T20:16:38.998Z,4.50
2017-08-14T20:19:06.694Z,3.90
2017-08-14T20:21:33.563Z,4.30
2017-08-14T20:24:00.520Z,4.40
2017-08-14T20:26:27.425Z,4.27
2017-08-14T20:28:54.401Z,4.53
2017-08-14T20:31:21.261Z,4.47
2017-08-14T20:33:48.249Z,4.90
2017-08-14T20:36:15.129Z,4.80
2017-08-14T20:38:42.064Z,4.83
2017-08-14T20:41:08.950Z,5.63
2017-08-14T20:43:35.897Z,4.80
2017-08-14T20:46:02.781Z,5.23
2017-08-14T20:48:29.718Z,4.47
2017-08-14T20:50:56.575Z,5.00
2017-08-14T20:53:23.513Z,4.50
2017-08-14T20:55:50.397Z,4.70
2017-08-14T20:58:17.314Z,4.87
2017-08-14T21:00:44.287Z,5.23
2017-08-14T21:03:11.235Z,4.20
2017-08-14T21:05:38.122Z,5.33
2017-08-14T21:08:05.765Z,4.40
2017-08-14T21:10:32.710Z,4.80
2017-08-14T21:12:59.627Z,4.73
2017-08-14T21:15:26.579Z,5.20
2017-08-14T21:17:53.584Z,5.70
2017-08-14T21:20:20.466Z,4.30
2017-08-14T21:22:47.630Z,4.73
2017-08-14T21:25:14.532Z,4.73
2017-08-14T21:27:41.400Z,4.73
2017-08-14T21:30:08.368Z,4.97
2017-08-14T21:32:35.250Z,5.13
2017-08-14T21:35:02.232Z,5.33
2017-08-14T21:37:29.127Z,4.70
2017-08-14T21:39:55.999Z,4.60
2017-08-14T21:42:23.011Z,5.33
2017-08-14T21:44:49.957Z,5.27
2017-08-14T21:47:16.865Z,5.20
2017-08-14T21:49:43.846Z,5.23
2017-08-14T21:52:10.741Z,4.80
2017-08-14T21:54:37.695Z,5.50
2017-08-14T21:57:04.629Z,5.23
2017-08-14T21:59:31.496Z,5.07
2017-08-14T22:01:58.465Z,5.30
2017-08-14T22:04:25.324Z,5.63
2017-08-14T22:06:52.218Z,5.63
2017-08-14T22:09:19.156Z,5.07
2017-08-14T22:11:46.060Z,5.63
2017-08-14T22:14:12.941Z,5.60
2017-08-14T22:16:39.888Z,5.90
2017-08-14T22:19:06.828Z,5.70
2017-08-14T22:21:33.718Z,5.60
2017-08-14T22:24:00.593Z,5.97
2017-08-14T22:26:27.536Z,5.60
2017-08-14T22:28:54.477Z,6.87
2017-08-14T22:31:21.375Z,5.50
2017-08-14T22:33:48.328Z,5.37
2017-08-14T22:36:15.192Z,5.43
2017-08-14T22:38:42.135Z,6.20
2017-08-14T22:41:08.977Z,5.57
2017-08-14T22:43:35.904Z,6.30
2017-08-14T22:46:02.769Z,5.17
2017-08-14T22:48:29.643Z,5.23
2017-08-14T22:50:56.583Z,5.80
2017-08-14T22:53:23.435Z,6.00
2017-08-14T22:55:50.347Z,4.97
2017-08-14T22:58:17.330Z,5.90
2017-08-14T23:00:44.212Z,5.23
2017-08-14T23:03:11.075Z,5.70
2017-08-14T23:05:37.992Z,5.63
2017-08-14T23:08:04.839Z,5.60
2017-08-14T23:10:31.710Z,6.07
2017-08-14T23:12:58.795Z,5.87
2017-08-14T23:15:25.944Z,5.80
2017-08-14T23:17:53.600Z,6.40
2017-08-14T23:20:20.542Z,5.83
2017-08-14T23:22:47.383Z,6.03
2017-08-14T23:25:14.403Z,6.30
2017-08-14T23:27:41.262Z,6.20
2017-08-14T23:30:08.200Z,6.63
2017-08-14T23:32:35.130Z,6.33
2017-08-14T23:35:01.979Z,5.90
2017-08-14T23:37:28.815Z,6.77
2017-08-14T23:39:55.754Z,6.20
2017-08-14T23:42:22.593Z,6.60
2017-08-14T23:44:49.444Z,6.70
2017-08-14T23:47:16.375Z,7.37
2017-08-14T23:49:43.992Z,6.43
